createdAt,value
2018-09-10T00:00:32.442Z,0.00
2018-09-10T00:01:31.857Z,0.00
2018-09-10T00:02:33.577Z,0.00
2018-09-10T00:03:31.807Z,0.00
2018-09-10T00:04:33.514Z,0.00
2018-09-10T00:05:31.722Z,0.00
2018-09-10T00:06:32.299Z,0.00
2018-09-10T00:07:31.698Z,0.00
2018-09-10T00:08:31.645Z,0.00
2018-09-10T00:10:31.646Z,0.00
2018-09-10T00:11:31.683Z,0.00
2018-09-10T00:12:32.523Z,0.00
2018-09-10T00:13:32.380Z,0.00
2018-09-10T00:14:34.469Z,0.00
2018-09-10T00:15:31.661Z,0.00
2018-09-10T00:16:31.644Z,0.00
2018-09-10T00:17:31.801Z,0.00
2018-09-10T00:18:31.701Z,0.00
2018-09-10T00:19:31.520Z,0.00
2018-09-10T00:20:33.398Z,0.00
2018-09-10T00:21:36.570Z,0.00
2018-09-10T00:22:41.625Z,0.00
2018-09-10T00:24:38.230Z,0.00
2018-09-10T00:25:29.804Z,0.00
2018-09-10T00:26:29.791Z,0.00
2018-09-10T00:27:30.666Z,0.00
2018-09-10T00:28:29.758Z,0.00
2018-09-10T00:29:31.534Z,0.00
2018-09-10T00:31:34.610Z,0.00
2018-09-10T00:32:30.757Z,0.00
2018-09-10T00:33:32.695Z,0.00
2018-09-10T00:34:30.543Z,0.00
2018-09-10T00:35:40.701Z,0.00
2018-09-10T00:36:29.721Z,0.00
2018-09-10T00:37:36.697Z,0.00
2018-09-10T00:40:04.029Z,0.00
2018-09-10T00:41:00.506Z,0.00
2018-09-10T00:43:00.508Z,0.00
2018-09-10T00:44:15.334Z,0.00
2018-09-10T00:45:01.903Z,0.00
2018-09-10T00:47:00.445Z,0.00
2018-09-10T00:48:00.488Z,0.00
2018-09-10T00:49:11.877Z,0.00
2018-09-10T00:50:00.555Z,0.00
2018-09-10T00:51:00.392Z,0.00
2018-09-10T00:52:01.425Z,0.00
2018-09-10T00:53:00.506Z,0.00
2018-09-10T00:55:43.420Z,0.00
2018-09-10T00:56:21.798Z,0.00
2018-09-10T00:57:23.454Z,0.00
2018-09-10T00:58:24.452Z,0.00
2018-09-10T00:59:22.423Z,0.00
2018-09-10T01:00:21.712Z,0.00
2018-09-10T01:01:55.643Z,0.00
2018-09-10T01:03:17.231Z,0.00
2018-09-10T01:04:18.750Z,0.00
2018-09-10T01:05:21.696Z,0.00
2018-09-10T01:06:18.717Z,0.00
2018-09-10T01:08:52.264Z,0.00
2018-09-10T01:09:52.115Z,0.00
2018-09-10T01:13:20.348Z,0.00
2018-09-10T01:14:22.897Z,0.00
2018-09-10T01:15:20.934Z,0.00
2018-09-10T01:16:20.304Z,0.00
2018-09-10T01:17:20.337Z,0.00
2018-09-10T01:18:20.343Z,0.00
2018-09-10T01:19:47.875Z,0.00
2018-09-10T01:20:20.366Z,0.00
2018-09-10T01:22:22.840Z,0.00
2018-09-10T01:23:22.856Z,0.00
2018-09-10T01:24:20.688Z,0.00
2018-09-10T01:25:41.252Z,0.00
2018-09-10T01:26:20.230Z,0.00
2018-09-10T01:27:20.804Z,0.00
2018-09-10T01:28:20.045Z,0.00
2018-09-10T01:29:20.938Z,0.00
2018-09-10T01:30:20.022Z,0.00
2018-09-10T01:31:20.125Z,0.00
2018-09-10T01:33:21.975Z,0.00
2018-09-10T01:34:24.883Z,0.00
2018-09-10T01:35:24.812Z,0.00
2018-09-10T01:36:20.879Z,0.00
2018-09-10T01:37:20.126Z,0.00
2018-09-10T01:38:21.768Z,0.00
2018-09-10T01:39:20.872Z,0.00
2018-09-10T01:40:30.829Z,0.00
2018-09-10T01:41:19.972Z,0.00
2018-09-10T01:42:19.991Z,0.00
2018-09-10T01:43:20.007Z,0.00
2018-09-10T01:44:20.911Z,0.00
2018-09-10T01:45:21.896Z,0.00
2018-09-10T01:46:20.507Z,0.00
2018-09-10T01:47:20.049Z,0.00
2018-09-10T01:48:19.864Z,0.00
2018-09-10T01:49:20.847Z,0.00
2018-09-10T01:50:20.718Z,0.00
2018-09-10T01:51:22.883Z,0.00
2018-09-10T01:52:42.928Z,0.00
2018-09-10T01:53:30.808Z,0.00
2018-09-10T01:54:20.975Z,0.00
2018-09-10T01:55:20.958Z,0.00
2018-09-10T01:56:19.902Z,0.00
2018-09-10T01:57:24.369Z,0.00
2018-09-10T01:58:20.470Z,0.00
2018-09-10T01:59:19.883Z,0.00
2018-09-10T02:00:19.908Z,0.00
2018-09-10T02:01:19.823Z,0.00
2018-09-10T02:02:19.780Z,0.00
2018-09-10T02:04:21.313Z,0.00
2018-09-10T02:05:21.429Z,0.00
2018-09-10T02:06:19.717Z,0.00
2018-09-10T02:07:19.743Z,0.00
2018-09-10T02:08:20.432Z,0.00
2018-09-10T02:09:19.831Z,0.00
2018-09-10T02:10:24.334Z,0.00
2018-09-10T02:11:21.404Z,0.00
2018-09-10T02:12:22.417Z,0.00
2018-09-10T02:13:19.772Z,0.00
2018-09-10T02:14:26.392Z,0.00
2018-09-10T02:15:20.238Z,0.00
2018-09-10T02:16:19.640Z,0.00
2018-09-10T02:17:21.347Z,0.00
2018-09-10T02:18:19.765Z,0.00
2018-09-10T02:19:19.747Z,0.00
2018-09-10T02:20:22.419Z,0.00
2018-09-10T02:21:19.656Z,0.00
2018-09-10T02:22:19.710Z,0.00
2018-09-10T02:23:22.396Z,0.00
2018-09-10T02:24:19.414Z,0.00
2018-09-10T02:25:19.589Z,0.00
2018-09-10T02:26:43.470Z,0.00
2018-09-10T02:27:22.918Z,0.00
2018-09-10T02:28:19.542Z,0.00
2018-09-10T02:29:19.598Z,0.00
2018-09-10T02:30:21.494Z,0.00
2018-09-10T02:31:26.401Z,0.00
2018-09-10T02:32:19.646Z,0.00
2018-09-10T02:33:19.410Z,0.00
2018-09-10T02:34:41.482Z,0.00
2018-09-10T02:35:22.418Z,0.00
2018-09-10T02:36:22.508Z,0.00
2018-09-10T02:37:26.399Z,0.00
2018-09-10T02:38:19.500Z,0.00
2018-09-10T02:39:21.397Z,0.00
2018-09-10T02:41:21.419Z,0.00
2018-09-10T02:42:21.873Z,0.00
2018-09-10T02:43:26.449Z,0.00
2018-09-10T02:44:40.400Z,0.00
2018-09-10T02:45:20.305Z,0.00
2018-09-10T02:46:19.426Z,0.00
2018-09-10T02:47:19.429Z,0.00
2018-09-10T02:48:19.480Z,0.00
2018-09-10T02:51:15.293Z,0.00
2018-09-10T02:52:16.137Z,0.00
2018-09-10T02:54:12.780Z,0.00
2018-09-10T02:55:11.736Z,0.00
2018-09-10T02:56:11.677Z,0.00
2018-09-10T02:57:16.066Z,0.00
2018-09-10T02:58:16.214Z,0.00
2018-09-10T02:59:11.800Z,0.00
2018-09-10T03:00:14.208Z,0.00
2018-09-10T03:01:14.336Z,0.00
2018-09-10T03:02:14.406Z,0.00
2018-09-10T03:04:11.693Z,4.00
2018-09-10T03:05:11.688Z,4.00
2018-09-10T03:06:18.178Z,0.00
2018-09-10T03:08:12.410Z,4.00
2018-09-10T03:09:12.328Z,4.00
2018-09-10T03:10:13.252Z,4.00
2018-09-10T03:11:13.344Z,0.00
2018-09-10T03:12:16.295Z,4.00
2018-09-10T03:13:13.270Z,4.00
2018-09-10T03:14:26.390Z,8.00
2018-09-10T03:15:11.709Z,4.00
2018-09-10T03:16:14.361Z,8.00
2018-09-10T03:17:18.306Z,8.00
2018-09-10T03:18:11.583Z,8.00
2018-09-10T03:19:11.498Z,8.00
2018-09-10T03:20:32.587Z,8.00
2018-09-10T03:21:13.192Z,12.00
2018-09-10T03:22:11.523Z,12.00
2018-09-10T03:23:11.473Z,12.00
2018-09-10T03:24:11.572Z,16.00
2018-09-10T03:25:22.897Z,16.00
2018-09-10T03:26:32.462Z,20.00
2018-09-10T03:27:16.253Z,20.00
2018-09-10T03:28:12.088Z,20.00
2018-09-10T03:29:11.498Z,24.00
2018-09-10T03:30:14.163Z,28.00
2018-09-10T03:31:11.375Z,28.00
2018-09-10T03:32:16.237Z,36.00
2018-09-10T03:33:11.349Z,36.00
2018-09-10T03:34:11.540Z,40.00
2018-09-10T03:36:12.313Z,52.00
2018-09-10T03:38:44.866Z,68.00
2018-09-10T03:39:44.938Z,76.00
2018-09-10T03:40:55.617Z,88.00
2018-09-10T03:41:46.231Z,100.00
2018-09-10T03:42:44.924Z,112.00
2018-09-10T03:43:45.018Z,124.00
2018-09-10T03:44:44.808Z,140.00
2018-09-10T03:45:44.913Z,156.00
2018-09-10T03:46:44.850Z,172.00
2018-09-10T03:47:52.464Z,192.00
2018-09-10T03:49:53.205Z,224.00
2018-09-10T03:50:53.696Z,240.00
2018-09-10T03:52:46.428Z,256.00
2018-09-10T03:53:48.074Z,268.00
2018-09-10T03:54:46.835Z,272.00
2018-09-10T03:55:45.176Z,280.00
2018-09-10T03:56:47.951Z,284.00
2018-09-10T03:57:45.285Z,288.00
2018-09-10T03:58:55.998Z,288.00
2018-09-10T04:00:06.252Z,284.00
2018-09-10T04:00:45.899Z,284.00
2018-09-10T04:01:45.768Z,284.00
2018-09-10T04:02:45.930Z,284.00
2018-09-10T04:03:45.172Z,280.00
2018-09-10T04:04:45.235Z,280.00
2018-09-10T04:07:06.226Z,276.00
2018-09-10T04:07:45.195Z,276.00
2018-09-10T04:09:20.975Z,280.00
2018-09-10T04:09:45.105Z,284.00
2018-09-10T04:10:45.832Z,292.00
2018-09-10T04:11:51.887Z,296.00
2018-09-10T04:12:45.074Z,308.00
2018-09-10T04:13:45.094Z,328.00
2018-09-10T04:15:20.997Z,348.00
2018-09-10T04:15:46.884Z,372.00
2018-09-10T04:16:45.034Z,400.00
2018-09-10T04:17:46.734Z,424.00
2018-09-10T04:18:45.122Z,452.00
2018-09-10T04:19:45.170Z,480.00
2018-09-10T04:20:49.643Z,492.00
2018-09-10T04:21:49.771Z,488.00
2018-09-10T04:22:49.665Z,484.00
2018-09-10T04:23:46.987Z,484.00
2018-09-10T04:24:48.013Z,496.00
2018-09-10T04:25:44.879Z,512.00
2018-09-10T04:27:01.928Z,524.00
2018-09-10T04:28:55.909Z,568.00
2018-09-10T04:29:55.035Z,588.00
2018-09-10T04:31:58.981Z,624.00
2018-09-10T04:35:11.108Z,668.00
2018-09-10T04:35:44.954Z,684.00
2018-09-10T04:36:42.829Z,704.00
2018-09-10T04:39:28.104Z,756.00
2018-09-10T04:40:27.620Z,772.00
2018-09-10T04:41:23.819Z,788.00
2018-09-10T04:42:37.715Z,812.00
2018-09-10T04:43:23.176Z,840.00
2018-09-10T04:44:22.981Z,884.00
2018-09-10T04:45:27.620Z,932.00
2018-09-10T04:46:23.168Z,996.00
2018-09-10T04:50:22.948Z,1000.00
2018-09-10T04:51:23.113Z,1008.00
2018-09-10T04:52:25.647Z,1032.00
2018-09-10T04:53:29.592Z,1048.00
2018-09-10T04:54:24.129Z,1052.00
2018-09-10T04:57:37.346Z,964.00
2018-09-10T04:58:15.794Z,908.00
2018-09-10T05:00:11.779Z,800.00
2018-09-10T05:01:09.266Z,728.00
2018-09-10T05:04:34.216Z,596.00
2018-09-10T05:05:35.429Z,608.00
2018-09-10T05:07:33.171Z,628.00
2018-09-10T05:08:26.216Z,624.00
2018-09-10T05:09:24.438Z,624.00
2018-09-10T05:10:24.930Z,620.00
2018-09-10T05:11:24.420Z,640.00
2018-09-10T05:12:24.502Z,648.00
2018-09-10T05:13:24.485Z,648.00
2018-09-10T05:14:25.403Z,732.00
2018-09-10T05:15:24.259Z,876.00
2018-09-10T05:16:24.436Z,1024.00
2018-09-10T05:17:24.351Z,1168.00
2018-09-10T05:18:27.199Z,1204.00
2018-09-10T05:19:27.793Z,1192.00
2018-09-10T05:20:24.495Z,1128.00
2018-09-10T05:21:24.528Z,1140.00
2018-09-10T05:22:24.894Z,1136.00
2018-09-10T05:23:24.460Z,1080.00
2018-09-10T05:24:45.645Z,1032.00
2018-09-10T05:25:24.434Z,1080.00
2018-09-10T05:26:24.723Z,1184.00
2018-09-10T05:28:24.576Z,1360.00
2018-09-10T05:29:24.730Z,1444.00
2018-09-10T05:30:24.790Z,1476.00
2018-09-10T05:31:24.307Z,1468.00
2018-09-10T05:32:26.840Z,1500.00
2018-09-10T05:33:25.820Z,1580.00
2018-09-10T05:34:25.909Z,1652.00
2018-09-10T05:39:01.705Z,2196.00
2018-09-10T05:39:51.216Z,2368.00
2018-09-10T05:43:56.029Z,3096.00
2018-09-10T05:44:49.428Z,3300.00
2018-09-10T05:45:59.467Z,3564.00
2018-09-10T05:46:38.432Z,3728.00
2018-09-10T05:47:40.408Z,3740.00
2018-09-10T05:48:40.381Z,3696.00
2018-09-10T05:49:40.053Z,3600.00
2018-09-10T05:52:39.337Z,3456.00
2018-09-10T05:53:38.763Z,2872.00
2018-09-10T05:54:38.822Z,2728.00
2018-09-10T05:55:42.613Z,2500.00
2018-09-10T05:56:41.769Z,2232.00
2018-09-10T05:57:38.606Z,2072.00
2018-09-10T06:01:38.455Z,1720.00
2018-09-10T06:03:38.851Z,1840.00
2018-09-10T06:04:38.385Z,1904.00
2018-09-10T06:05:38.056Z,1920.00
2018-09-10T06:06:38.450Z,1944.00
2018-09-10T06:07:43.100Z,1924.00
2018-09-10T06:08:39.141Z,1856.00
2018-09-10T06:10:42.592Z,1840.00
2018-09-10T06:11:39.408Z,1852.00
2018-09-10T06:12:38.743Z,1792.00
2018-09-10T06:15:05.511Z,1828.00
2018-09-10T06:16:00.753Z,1932.00
2018-09-10T06:20:59.313Z,2044.00
2018-09-10T06:36:26.588Z,2560.00
2018-09-10T06:39:15.408Z,3056.00
2018-09-10T06:40:10.530Z,2920.00
2018-09-10T06:43:04.403Z,2924.00
2018-09-10T06:44:07.112Z,2968.00
2018-09-10T06:50:38.243Z,4648.00
2018-09-10T06:53:14.643Z,5424.00
2018-09-10T06:55:08.535Z,8608.00
2018-09-10T06:56:09.374Z,5524.00
2018-09-10T06:57:07.549Z,5364.00
2018-09-10T06:58:08.851Z,5704.00
2018-09-10T06:59:07.440Z,6536.00
2018-09-10T07:00:08.111Z,9492.00
2018-09-10T07:02:08.004Z,7168.00
2018-09-10T07:03:07.989Z,8184.00
2018-09-10T07:04:10.203Z,7376.00
2018-09-10T07:06:14.700Z,8072.00
2018-09-10T07:07:12.769Z,15328.00
2018-09-10T07:08:13.492Z,16704.00
2018-09-10T07:09:25.580Z,16256.00
2018-09-10T07:10:14.965Z,8484.00
2018-09-10T07:11:11.396Z,8280.00
2018-09-10T07:12:10.500Z,16384.00
2018-09-10T07:13:12.134Z,15872.00
2018-09-10T07:14:09.399Z,16032.00
2018-09-10T07:15:09.382Z,16288.00
2018-09-10T07:19:09.928Z,9124.00
2018-09-10T07:20:08.008Z,10908.00
2018-09-10T07:21:10.007Z,10728.00
2018-09-10T07:22:08.124Z,9376.00
2018-09-10T07:25:07.527Z,9632.00
2018-09-10T07:28:07.515Z,11876.00
2018-09-10T07:33:08.554Z,14868.00
2018-09-10T07:34:09.922Z,12932.00
2018-09-10T07:36:07.848Z,9244.00
2018-09-10T07:39:08.432Z,7072.00
2018-09-10T07:41:07.966Z,6916.00
2018-09-10T07:46:07.413Z,5272.00
2018-09-10T07:47:07.986Z,5264.00
2018-09-10T07:48:07.428Z,5796.00
2018-09-10T07:50:07.572Z,7840.00
2018-09-10T07:53:10.053Z,20704.00
2018-09-10T07:54:10.438Z,18624.00
2018-09-10T07:55:09.925Z,10012.00
2018-09-10T07:56:07.616Z,13124.00
2018-09-10T07:57:08.397Z,9640.00
2018-09-10T08:00:10.419Z,11704.00
2018-09-10T08:02:10.050Z,13044.00
2018-09-10T08:03:07.959Z,12608.00
2018-09-10T08:05:10.595Z,12408.00
2018-09-10T08:06:10.590Z,21312.00
2018-09-10T08:11:10.576Z,24576.00
2018-09-10T08:12:10.774Z,24608.00
2018-09-10T08:13:13.131Z,21184.00
2018-09-10T08:14:08.893Z,19840.00
2018-09-10T08:15:08.413Z,21344.00
2018-09-10T08:16:10.611Z,23552.00
2018-09-10T08:21:10.426Z,21120.00
2018-09-10T08:22:08.030Z,15324.00
2018-09-10T08:23:10.058Z,15072.00
2018-09-10T08:31:07.412Z,22432.00
2018-09-10T08:37:08.948Z,14580.00
2018-09-10T08:42:01.908Z,11064.00
2018-09-10T08:44:01.994Z,8380.00
2018-09-10T08:45:00.969Z,7440.00
2018-09-10T08:46:01.463Z,7016.00
2018-09-10T08:47:01.954Z,6996.00
2018-09-10T08:48:05.988Z,7152.00
2018-09-10T08:51:01.032Z,9088.00
2018-09-10T08:52:02.036Z,9168.00
2018-09-10T08:53:00.973Z,9532.00
2018-09-10T08:54:01.699Z,10048.00
2018-09-10T08:55:01.641Z,10428.00
2018-09-10T08:56:03.240Z,11036.00
2018-09-10T08:57:00.904Z,12900.00
2018-09-10T08:59:01.414Z,12568.00
2018-09-10T09:00:15.279Z,12548.00
2018-09-10T09:01:00.939Z,14132.00
2018-09-10T09:02:01.196Z,18880.00
2018-09-10T09:03:01.604Z,21856.00
2018-09-10T09:04:01.787Z,31904.00
2018-09-10T09:05:33.427Z,30912.00
2018-09-10T09:06:01.988Z,16024.00
2018-09-10T09:07:06.004Z,14144.00
2018-09-10T09:09:06.931Z,14312.00
2018-09-10T09:10:11.973Z,13260.00
2018-09-10T09:11:01.475Z,17632.00
2018-09-10T09:12:02.081Z,18624.00
2018-09-10T09:13:00.941Z,30880.00
2018-09-10T09:14:22.548Z,21696.00
2018-09-10T09:15:07.994Z,13592.00
2018-09-10T09:19:01.499Z,12680.00
2018-09-10T09:20:11.421Z,15572.00
2018-09-10T09:22:04.479Z,12216.00
2018-09-10T09:23:11.989Z,10748.00
2018-09-10T09:25:01.986Z,13556.00
2018-09-10T09:26:26.375Z,15028.00
2018-09-10T09:27:01.017Z,13900.00
2018-09-10T09:28:01.384Z,11044.00
2018-09-10T09:29:00.807Z,10692.00
2018-09-10T09:30:01.485Z,9876.00
2018-09-10T09:31:01.148Z,9500.00
2018-09-10T09:32:02.447Z,9120.00
2018-09-10T09:33:00.803Z,8204.00
2018-09-10T09:34:01.382Z,8700.00
2018-09-10T09:35:02.317Z,9976.00
2018-09-10T09:36:05.479Z,11628.00
2018-09-10T09:38:02.313Z,15392.00
2018-09-10T09:39:21.760Z,12172.00
2018-09-10T09:40:00.905Z,9888.00
2018-09-10T09:41:01.481Z,8492.00
2018-09-10T09:42:01.300Z,7944.00
2018-09-10T09:43:01.153Z,7536.00
2018-09-10T09:44:01.495Z,7924.00
2018-09-10T09:45:00.696Z,8096.00
2018-09-10T09:48:00.708Z,6400.00
2018-09-10T09:49:02.846Z,7096.00
2018-09-10T09:50:02.225Z,7860.00
2018-09-10T09:51:00.814Z,8080.00
2018-09-10T09:52:01.938Z,7936.00
2018-09-10T09:54:00.797Z,5948.00
2018-09-10T09:55:02.810Z,5308.00
2018-09-10T09:56:01.358Z,5032.00
2018-09-10T09:58:00.714Z,4540.00
2018-09-10T09:59:05.694Z,4056.00
2018-09-10T10:00:00.664Z,3600.00
2018-09-10T10:01:03.795Z,3304.00
2018-09-10T10:02:00.760Z,3264.00
2018-09-10T10:04:01.236Z,3828.00
2018-09-10T10:05:00.857Z,4020.00
2018-09-10T10:06:02.252Z,4344.00
2018-09-10T10:07:01.425Z,4868.00
2018-09-10T10:08:01.480Z,5300.00
2018-09-10T10:10:07.643Z,7532.00
2018-09-10T10:11:00.970Z,10908.00
2018-09-10T10:13:28.071Z,10984.00
2018-09-10T10:14:23.519Z,9596.00
2018-09-10T10:15:22.916Z,9092.00
2018-09-10T10:17:37.837Z,7848.00
2018-09-10T10:18:27.397Z,7188.00
2018-09-10T10:19:25.412Z,7184.00
2018-09-10T10:20:23.440Z,7084.00
2018-09-10T10:22:23.001Z,6928.00
2018-09-10T10:23:27.859Z,7036.00
2018-09-10T10:24:22.748Z,7244.00
2018-09-10T10:26:23.370Z,6720.00
2018-09-10T10:27:23.514Z,6508.00
2018-09-10T10:28:23.455Z,6652.00
2018-09-10T10:30:43.872Z,7812.00
2018-09-10T10:31:22.733Z,8912.00
2018-09-10T10:33:24.496Z,13272.00
2018-09-10T10:35:23.138Z,10580.00
2018-09-10T10:36:24.489Z,9448.00
2018-09-10T10:37:24.848Z,9440.00
2018-09-10T10:39:27.332Z,8140.00
2018-09-10T10:40:24.404Z,7628.00
2018-09-10T10:41:24.490Z,7972.00
2018-09-10T10:43:23.140Z,8272.00
2018-09-10T10:44:27.345Z,9080.00
2018-09-10T10:45:22.707Z,10644.00
2018-09-10T10:46:43.926Z,11368.00
2018-09-10T10:47:24.400Z,10704.00
2018-09-10T10:48:27.469Z,10772.00
2018-09-10T10:50:23.290Z,11160.00
2018-09-10T10:53:19.528Z,8880.00
2018-09-10T10:54:18.976Z,8352.00
2018-09-10T10:55:42.421Z,8664.00
2018-09-10T10:56:19.334Z,8592.00
2018-09-10T10:58:19.634Z,8908.00
2018-09-10T10:59:25.785Z,7832.00
2018-09-10T11:00:19.817Z,7092.00
2018-09-10T11:01:18.923Z,6940.00
2018-09-10T11:02:19.882Z,7416.00
2018-09-10T11:03:19.883Z,7892.00
2018-09-10T11:04:25.347Z,8116.00
2018-09-10T11:05:23.359Z,8268.00
2018-09-10T11:06:18.879Z,8436.00
2018-09-10T11:07:19.336Z,9124.00
2018-09-10T11:08:19.322Z,9608.00
2018-09-10T11:09:20.314Z,9456.00
2018-09-10T11:10:21.195Z,9792.00
2018-09-10T11:14:12.056Z,11316.00
2018-09-10T11:14:44.430Z,10876.00
2018-09-10T11:15:40.091Z,10608.00
2018-09-10T11:17:50.533Z,12364.00
2018-09-10T11:19:01.564Z,11864.00
2018-09-10T11:19:40.564Z,11636.00
2018-09-10T11:20:41.015Z,11944.00
2018-09-10T11:21:47.101Z,11956.00
2018-09-10T11:22:42.124Z,10968.00
2018-09-10T11:23:40.230Z,9916.00
2018-09-10T11:24:54.532Z,8872.00
2018-09-10T11:27:44.648Z,6020.00
2018-09-10T11:28:41.085Z,6424.00
2018-09-10T11:29:40.060Z,7112.00
2018-09-10T11:30:40.599Z,7076.00
2018-09-10T11:31:40.013Z,7164.00
2018-09-10T11:32:40.511Z,19808.00
2018-09-10T11:34:40.901Z,33760.00
2018-09-10T11:35:40.614Z,38848.00
2018-09-10T11:36:45.071Z,20672.00
2018-09-10T11:37:42.018Z,17664.00
2018-09-10T11:38:45.133Z,17344.00
2018-09-10T11:39:45.104Z,19840.00
2018-09-10T11:40:40.044Z,25888.00
2018-09-10T11:41:40.448Z,14140.00
2018-09-10T11:43:51.113Z,9616.00
2018-09-10T11:44:42.104Z,9416.00
2018-09-10T11:48:35.150Z,8532.00
2018-09-10T11:51:07.679Z,11100.00
2018-09-10T11:53:07.061Z,9540.00
2018-09-10T11:54:03.049Z,10944.00
2018-09-10T11:56:05.013Z,10932.00
2018-09-10T11:56:56.009Z,10916.00
2018-09-10T11:58:48.384Z,9096.00
2018-09-10T11:59:46.691Z,8276.00
2018-09-10T12:00:46.704Z,7604.00
2018-09-10T12:01:48.336Z,9124.00
2018-09-10T12:02:46.712Z,9516.00
2018-09-10T12:03:46.622Z,12528.00
2018-09-10T12:04:46.726Z,10308.00
2018-09-10T12:05:46.616Z,8500.00
2018-09-10T12:07:01.250Z,6564.00
2018-09-10T12:07:47.135Z,6208.00
2018-09-10T12:09:46.661Z,5988.00
2018-09-10T12:10:46.648Z,5300.00
2018-09-10T12:11:46.679Z,5368.00
2018-09-10T12:12:46.744Z,6556.00
2018-09-10T12:13:49.170Z,10284.00
2018-09-10T12:14:47.175Z,30016.00
2018-09-10T12:17:51.974Z,15032.00
2018-09-10T12:18:42.872Z,18912.00
2018-09-10T12:25:27.680Z,14312.00
2018-09-10T12:26:22.934Z,22080.00
2018-09-10T12:28:19.893Z,35808.00
2018-09-10T12:29:15.962Z,21856.00
2018-09-10T12:34:29.930Z,5376.00
2018-09-10T12:35:26.929Z,4868.00
2018-09-10T12:36:24.462Z,4148.00
2018-09-10T12:37:26.834Z,3904.00
2018-09-10T12:38:38.321Z,4116.00
2018-09-10T12:39:24.331Z,5224.00
2018-09-10T12:40:23.893Z,6752.00
2018-09-10T12:41:24.403Z,7028.00
2018-09-10T12:42:25.885Z,6896.00
2018-09-10T12:43:24.006Z,8004.00
2018-09-10T12:44:24.473Z,8020.00
2018-09-10T12:45:23.790Z,9136.00
2018-09-10T12:46:26.334Z,10060.00
2018-09-10T12:47:23.758Z,11052.00
2018-09-10T12:48:25.476Z,15840.00
2018-09-10T12:51:24.824Z,10768.00
2018-09-10T12:52:19.697Z,13292.00
2018-09-10T12:54:25.989Z,16928.00
2018-09-10T12:55:12.421Z,13768.00
2018-09-10T12:57:26.839Z,12488.00
2018-09-10T12:58:09.812Z,10536.00
2018-09-10T12:59:19.812Z,7524.00
2018-09-10T13:01:06.808Z,4824.00
2018-09-10T13:02:05.862Z,4716.00
2018-09-10T13:03:09.728Z,5128.00
2018-09-10T13:04:05.423Z,6044.00
2018-09-10T13:05:06.733Z,7864.00
2018-09-10T13:07:07.850Z,12488.00
2018-09-10T13:08:06.091Z,15304.00
2018-09-10T13:09:07.768Z,25632.00
2018-09-10T13:10:51.721Z,20352.00
2018-09-10T13:13:54.247Z,9188.00
2018-09-10T13:14:51.706Z,6304.00
2018-09-10T13:18:30.837Z,7684.00
2018-09-10T13:19:29.145Z,10060.00
2018-09-10T13:20:29.256Z,12384.00
2018-09-10T13:21:50.231Z,13276.00
2018-09-10T13:22:58.185Z,13964.00
2018-09-10T13:23:44.145Z,15704.00
2018-09-10T13:24:30.155Z,16608.00
2018-09-10T13:25:29.208Z,18784.00
2018-09-10T13:26:29.149Z,20768.00
2018-09-10T13:27:29.191Z,22144.00
2018-09-10T13:28:50.228Z,22368.00
2018-09-10T13:33:36.795Z,35776.00
2018-09-10T13:35:37.115Z,14268.00
2018-09-10T13:41:42.595Z,6364.00
2018-09-10T13:43:19.484Z,8340.00
2018-09-10T13:44:19.582Z,9220.00
2018-09-10T13:46:55.120Z,5916.00
2018-09-10T13:47:45.140Z,4768.00
2018-09-10T13:52:28.763Z,6668.00
2018-09-10T13:54:18.230Z,7140.00
2018-09-10T13:55:18.019Z,7308.00
2018-09-10T13:56:18.569Z,8088.00
2018-09-10T13:57:18.112Z,16896.00
2018-09-10T13:58:19.638Z,8772.00
2018-09-10T13:59:39.030Z,6564.00
2018-09-10T14:00:17.960Z,5872.00
2018-09-10T14:01:18.039Z,5304.00
2018-09-10T14:02:18.327Z,5344.00
2018-09-10T14:03:18.059Z,6028.00
2018-09-10T14:04:19.723Z,4136.00
2018-09-10T14:05:19.603Z,3252.00
2018-09-10T14:06:17.997Z,3948.00
2018-09-10T14:07:17.957Z,3228.00
2018-09-10T14:08:19.707Z,3412.00
2018-09-10T14:09:17.873Z,3488.00
2018-09-10T14:10:17.879Z,3900.00
2018-09-10T14:11:17.903Z,4032.00
2018-09-10T14:12:17.851Z,3860.00
2018-09-10T14:13:17.900Z,3924.00
2018-09-10T14:14:17.824Z,4484.00
2018-09-10T14:16:17.781Z,6072.00
2018-09-10T14:17:19.378Z,6908.00
2018-09-10T14:18:19.519Z,9608.00
2018-09-10T14:19:17.801Z,10860.00
2018-09-10T14:20:18.571Z,14008.00
2018-09-10T14:21:22.422Z,12156.00
2018-09-10T14:22:17.904Z,10344.00
2018-09-10T14:23:17.855Z,15936.00
2018-09-10T14:24:17.855Z,18304.00
2018-09-10T14:25:17.899Z,20640.00
2018-09-10T14:26:18.579Z,15968.00
2018-09-10T14:27:17.887Z,15904.00
2018-09-10T14:28:17.910Z,13952.00
2018-09-10T14:29:22.487Z,14752.00
2018-09-10T14:30:17.828Z,7120.00
2018-09-10T14:31:19.596Z,5544.00
2018-09-10T14:32:17.988Z,5100.00
2018-09-10T14:33:19.429Z,4852.00
2018-09-10T14:34:17.824Z,5868.00
2018-09-10T14:35:17.859Z,17024.00
2018-09-10T14:36:17.641Z,28352.00
2018-09-10T14:37:17.904Z,27520.00
2018-09-10T14:38:17.930Z,9692.00
2018-09-10T14:39:20.664Z,13972.00
2018-09-10T14:40:18.676Z,25632.00
2018-09-10T14:41:17.935Z,24160.00
2018-09-10T14:42:19.583Z,22240.00
2018-09-10T14:43:17.998Z,24576.00
2018-09-10T14:44:39.699Z,28960.00
2018-09-10T14:46:19.713Z,33536.00
2018-09-10T14:47:18.346Z,34208.00
2018-09-10T14:48:17.980Z,31840.00
2018-09-10T14:51:17.787Z,15520.00
2018-09-10T14:52:38.923Z,12368.00
2018-09-10T14:53:28.713Z,12992.00
2018-09-10T14:55:19.702Z,13720.00
2018-09-10T14:57:19.645Z,18784.00
2018-09-10T14:58:17.941Z,23296.00
2018-09-10T14:59:17.926Z,28928.00
2018-09-10T15:02:25.298Z,33152.00
2018-09-10T15:03:18.730Z,28032.00
2018-09-10T15:05:20.719Z,29696.00
2018-09-10T15:06:19.750Z,21632.00
2018-09-10T15:11:18.488Z,17952.00
2018-09-10T15:12:17.821Z,19936.00
2018-09-10T15:13:20.762Z,16416.00
2018-09-10T15:14:17.945Z,10092.00
2018-09-10T15:15:17.833Z,8560.00
2018-09-10T15:17:18.425Z,5728.00
2018-09-10T15:18:18.695Z,4776.00
2018-09-10T15:19:17.808Z,5708.00
2018-09-10T15:20:17.759Z,5744.00
2018-09-10T15:21:19.631Z,9956.00
2018-09-10T15:22:18.665Z,6516.00
2018-09-10T15:23:17.710Z,6440.00
2018-09-10T15:24:17.799Z,7360.00
2018-09-10T15:26:17.762Z,7140.00
2018-09-10T15:27:17.779Z,4728.00
2018-09-10T15:28:17.717Z,6512.00
2018-09-10T15:29:17.759Z,4376.00
2018-09-10T15:30:22.634Z,6968.00
2018-09-10T15:31:17.700Z,4736.00
2018-09-10T15:32:17.784Z,5012.00
2018-09-10T15:33:17.750Z,5928.00
2018-09-10T15:34:17.511Z,4260.00
2018-09-10T15:37:33.893Z,3696.00
2018-09-10T15:39:20.243Z,6500.00
2018-09-10T15:40:20.397Z,7464.00
2018-09-10T15:42:17.420Z,3688.00
2018-09-10T15:43:15.492Z,3172.00
2018-09-10T15:45:15.483Z,3016.00
2018-09-10T15:46:14.013Z,2960.00
2018-09-10T15:47:13.809Z,3332.00
2018-09-10T15:48:14.089Z,3676.00
2018-09-10T15:49:14.050Z,3488.00
2018-09-10T15:50:14.098Z,3396.00
2018-09-10T15:51:14.535Z,3084.00
2018-09-10T15:52:13.915Z,2880.00
2018-09-10T15:53:13.757Z,2960.00
2018-09-10T15:54:13.983Z,2840.00
2018-09-10T15:55:14.604Z,2780.00
2018-09-10T15:56:15.503Z,2648.00
2018-09-10T15:57:13.930Z,2356.00
2018-09-10T15:58:13.993Z,1776.00
2018-09-10T15:59:13.881Z,1404.00
2018-09-10T16:00:13.852Z,1116.00
2018-09-10T16:01:15.617Z,1020.00
2018-09-10T16:02:24.492Z,1000.00
2018-09-10T16:03:15.594Z,1004.00
2018-09-10T16:04:13.677Z,1072.00
2018-09-10T16:05:13.882Z,1072.00
2018-09-10T16:06:13.855Z,1076.00
2018-09-10T16:07:13.782Z,1120.00
2018-09-10T16:08:13.811Z,1124.00
2018-09-10T16:09:14.540Z,1140.00
2018-09-10T16:10:13.743Z,1124.00
2018-09-10T16:11:14.407Z,1160.00
2018-09-10T16:12:13.892Z,1208.00
2018-09-10T16:13:13.825Z,1164.00
2018-09-10T16:14:35.639Z,980.00
2018-09-10T16:15:15.550Z,752.00
2018-09-10T16:16:13.866Z,676.00
2018-09-10T16:17:14.639Z,636.00
2018-09-10T16:18:13.506Z,620.00
2018-09-10T16:19:15.487Z,624.00
2018-09-10T16:20:13.556Z,584.00
2018-09-10T16:22:13.685Z,588.00
2018-09-10T16:23:13.627Z,612.00
2018-09-10T16:24:15.538Z,620.00
2018-09-10T16:25:16.380Z,644.00
2018-09-10T16:26:15.427Z,680.00
2018-09-10T16:28:40.348Z,708.00